sensor_id;sensor_type;location;lat;lon;timestamp;pressure;altitude;pressure_sealevel;temperature;humidity
69535;BME280;56754;51.568;5.048;2023-06-05T00:00:11;102211.19;;;20.67;51.57
69535;BME280;56754;51.568;5.048;2023-06-05T00:02:36;102206.13;;;20.65;51.99
69535;BME280;56754;51.568;5.048;2023-06-05T00:05:02;102209.94;;;20.64;50.73
69535;BME280;56754;51.568;5.048;2023-06-05T00:07:27;102212.25;;;20.62;50.83
69535;BME280;56754;51.568;5.048;2023-06-05T00:09:52;102211.78;;;20.60;51.32
69535;BME280;56754;51.568;5.048;2023-06-05T00:12:18;102219.94;;;20.60;51.49
69535;BME280;56754;51.568;5.048;2023-06-05T00:14:43;102218.38;;;20.59;51.70
69535;BME280;56754;51.568;5.048;2023-06-05T00:17:09;102219.84;;;20.57;52.03
69535;BME280;56754;51.568;5.048;2023-06-05T00:19:34;102217.81;;;20.54;51.02
69535;BME280;56754;51.568;5.048;2023-06-05T00:22:00;102211.88;;;20.52;51.50
69535;BME280;56754;51.568;5.048;2023-06-05T00:24:25;102217.69;;;20.50;51.32
69535;BME280;56754;51.568;5.048;2023-06-05T00:26:53;102214.50;;;20.48;51.85
69535;BME280;56754;51.568;5.048;2023-06-05T00:29:18;102206.69;;;20.46;51.74
69535;BME280;56754;51.568;5.048;2023-06-05T00:31:44;102208.63;;;20.46;52.11
69535;BME280;56754;51.568;5.048;2023-06-05T00:34:09;102207.38;;;20.43;51.85
69535;BME280;56754;51.568;5.048;2023-06-05T00:36:34;102204.22;;;20.41;51.73
69535;BME280;56754;51.568;5.048;2023-06-05T00:39:00;102211.13;;;20.39;51.63
69535;BME280;56754;51.568;5.048;2023-06-05T00:41:25;102210.69;;;20.37;52.14
69535;BME280;56754;51.568;5.048;2023-06-05T00:43:50;102210.69;;;20.37;52.14
69535;BME280;56754;51.568;5.048;2023-06-05T00:46:16;102211.34;;;20.34;51.78
69535;BME280;56754;51.568;5.048;2023-06-05T00:48:41;102216.34;;;20.32;52.15
69535;BME280;56754;51.568;5.048;2023-06-05T00:51:07;102213.97;;;20.30;52.21
69535;BME280;56754;51.568;5.048;2023-06-05T00:53:34;102212.72;;;20.28;52.21
69535;BME280;56754;51.568;5.048;2023-06-05T00:56:00;102214.97;;;20.26;52.45
69535;BME280;56754;51.568;5.048;2023-06-05T00:58:25;102210.69;;;20.25;51.90
69535;BME280;56754;51.568;5.048;2023-06-05T01:00:53;102211.03;;;20.23;52.00
69535;BME280;56754;51.568;5.048;2023-06-05T01:03:18;102207.09;;;20.20;52.37
69535;BME280;56754;51.568;5.048;2023-06-05T01:05:44;102200.41;;;20.18;52.55
69535;BME280;56754;51.568;5.048;2023-06-05T01:08:10;102201.53;;;20.17;52.63
69535;BME280;56754;51.568;5.048;2023-06-05T01:10:35;102201.09;;;20.15;52.46
69535;BME280;56754;51.568;5.048;2023-06-05T01:13:04;102200.31;;;20.14;52.46
69535;BME280;56754;51.568;5.048;2023-06-05T01:15:31;102201.78;;;20.12;53.19
69535;BME280;56754;51.568;5.048;2023-06-05T01:17:58;102194.75;;;20.11;52.75
69535;BME280;56754;51.568;5.048;2023-06-05T01:20:38;102190.78;;;20.08;53.18
69535;BME280;56754;51.568;5.048;2023-06-05T01:23:04;102196.59;;;20.07;53.08
69535;BME280;56754;51.568;5.048;2023-06-05T01:25:29;102187.97;;;20.05;52.48
69535;BME280;56754;51.568;5.048;2023-06-05T01:28:00;102198.03;;;20.04;53.06
69535;BME280;56754;51.568;5.048;2023-06-05T01:30:31;102196.00;;;20.01;53.22
69535;BME280;56754;51.568;5.048;2023-06-05T01:33:04;102199.88;;;20.00;52.96
69535;BME280;56754;51.568;5.048;2023-06-05T01:35:33;102193.97;;;19.98;53.26
69535;BME280;56754;51.568;5.048;2023-06-05T01:38:00;102196.22;;;19.96;53.37
69535;BME280;56754;51.568;5.048;2023-06-05T01:40:27;102185.72;;;19.94;53.72
69535;BME280;56754;51.568;5.048;2023-06-05T01:42:54;102192.63;;;19.92;53.94
69535;BME280;56754;51.568;5.048;2023-06-05T01:45:20;102187.53;;;19.90;53.66
69535;BME280;56754;51.568;5.048;2023-06-05T01:47:45;102187.88;;;19.89;53.52
69535;BME280;56754;51.568;5.048;2023-06-05T01:50:11;102182.78;;;19.87;53.64
69535;BME280;56754;51.568;5.048;2023-06-05T01:52:36;102189.34;;;19.86;53.95
69535;BME280;56754;51.568;5.048;2023-06-05T01:55:02;102187.00;;;19.85;53.26
69535;BME280;56754;51.568;5.048;2023-06-05T01:57:28;102181.88;;;19.83;53.57
69535;BME280;56754;51.568;5.048;2023-06-05T01:59:54;102174.88;;;19.82;53.66
69535;BME280;56754;51.568;5.048;2023-06-05T02:02:23;102175.56;;;19.79;53.22
69535;BME280;56754;51.568;5.048;2023-06-05T02:04:48;102169.31;;;19.78;53.68
69535;BME280;56754;51.568;5.048;2023-06-05T02:07:14;102166.97;;;19.77;53.82
69535;BME280;56754;51.568;5.048;2023-06-05T02:09:40;102165.72;;;19.74;53.72
69535;BME280;56754;51.568;5.048;2023-06-05T02:12:05;102167.66;;;19.74;53.85
69535;BME280;56754;51.568;5.048;2023-06-05T02:14:31;102162.53;;;19.72;53.67
69535;BME280;56754;51.568;5.048;2023-06-05T02:16:56;102167.53;;;19.70;54.03
69535;BME280;56754;51.568;5.048;2023-06-05T02:19:21;102167.88;;;19.69;53.76
69535;BME280;56754;51.568;5.048;2023-06-05T02:21:47;102169.31;;;19.66;54.11
69535;BME280;56754;51.568;5.048;2023-06-05T02:24:12;102165.03;;;19.65;53.91
69535;BME280;56754;51.568;5.048;2023-06-05T02:26:37;102165.34;;;19.64;54.34
69535;BME280;56754;51.568;5.048;2023-06-05T02:29:02;102154.06;;;19.62;54.40
69535;BME280;56754;51.568;5.048;2023-06-05T02:31:28;102164.44;;;19.60;54.25
69535;BME280;56754;51.568;5.048;2023-06-05T02:33:54;102159.38;;;19.58;54.04
69535;BME280;56754;51.568;5.048;2023-06-05T02:36:19;102161.63;;;19.56;54.10
69535;BME280;56754;51.568;5.048;2023-06-05T02:38:45;102168.16;;;19.55;54.36
69535;BME280;56754;51.568;5.048;2023-06-05T02:41:10;102160.38;;;19.53;54.21
69535;BME280;56754;51.568;5.048;2023-06-05T02:43:36;102157.97;;;19.52;54.39
69535;BME280;56754;51.568;5.048;2023-06-05T02:46:01;102156.75;;;19.49;54.56
69535;BME280;56754;51.568;5.048;2023-06-05T02:48:26;102153.22;;;19.49;54.19
69535;BME280;56754;51.568;5.048;2023-06-05T02:50:52;102151.66;;;19.48;54.28
69535;BME280;56754;51.568;5.048;2023-06-05T02:53:17;102149.31;;;19.46;54.16
69535;BME280;56754;51.568;5.048;2023-06-05T02:55:42;102148.06;;;19.44;53.91
69535;BME280;56754;51.568;5.048;2023-06-05T02:58:08;102146.44;;;19.43;54.03
69535;BME280;56754;51.568;5.048;2023-06-05T03:00:33;102144.09;;;19.41;54.39
69535;BME280;56754;51.568;5.048;2023-06-05T03:02:58;102144.41;;;19.40;54.34
69535;BME280;56754;51.568;5.048;2023-06-05T03:05:27;102150.50;;;19.37;54.41
69535;BME280;56754;51.568;5.048;2023-06-05T03:07:52;102157.06;;;19.36;54.52
69535;BME280;56754;51.568;5.048;2023-06-05T03:10:18;102153.56;;;19.35;55.00
69535;BME280;56754;51.568;5.048;2023-06-05T03:12:44;102151.19;;;19.33;54.88
69535;BME280;56754;51.568;5.048;2023-06-05T03:15:09;102153.47;;;19.31;54.86
69535;BME280;56754;51.568;5.048;2023-06-05T03:17:35;102156.50;;;19.30;55.12
69535;BME280;56754;51.568;5.048;2023-06-05T03:20:00;102147.91;;;19.28;54.83
69535;BME280;56754;51.568;5.048;2023-06-05T03:22:25;102146.31;;;19.27;54.99
69535;BME280;56754;51.568;5.048;2023-06-05T03:24:50;102146.66;;;19.25;54.89
69535;BME280;56754;51.568;5.048;2023-06-05T03:27:16;102140.78;;;19.23;54.98
69535;BME280;56754;51.568;5.048;2023-06-05T03:29:41;102140.00;;;19.23;55.02
69535;BME280;56754;51.568;5.048;2023-06-05T03:32:06;102137.63;;;19.21;55.17
69535;BME280;56754;51.568;5.048;2023-06-05T03:34:32;102142.56;;;19.19;54.86
69535;BME280;56754;51.568;5.048;2023-06-05T03:36:57;102132.09;;;19.18;54.95
69535;BME280;56754;51.568;5.048;2023-06-05T03:39:22;102136.25;;;19.15;55.43
69535;BME280;56754;51.568;5.048;2023-06-05T03:41:48;102138.50;;;19.13;54.82
69535;BME280;56754;51.568;5.048;2023-06-05T03:44:13;102132.63;;;19.11;55.06
69535;BME280;56754;51.568;5.048;2023-06-05T03:46:38;102141.88;;;19.10;54.17
69535;BME280;56754;51.568;5.048;2023-06-05T03:49:04;102140.31;;;19.09;55.15
69535;BME280;56754;51.568;5.048;2023-06-05T03:51:29;102137.91;;;19.07;54.72
69535;BME280;56754;51.568;5.048;2023-06-05T03:53:55;102142.56;;;19.07;54.53
69535;BME280;56754;51.568;5.048;2023-06-05T03:56:21;102132.38;;;19.04;55.24
69535;BME280;56754;51.568;5.048;2023-06-05T03:58:46;102140.50;;;19.04;55.69
69535;BME280;56754;51.568;5.048;2023-06-05T04:01:11;102140.06;;;19.02;55.17
69535;BME280;56754;51.568;5.048;2023-06-05T04:03:36;102136.53;;;19.01;55.04
69535;BME280;56754;51.568;5.048;2023-06-05T04:06:02;102134.19;;;19.00;55.17
69535;BME280;56754;51.568;5.048;2023-06-05T04:08:27;102138.00;;;18.99;55.43
69535;BME280;56754;51.568;5.048;2023-06-05T04:10:53;102137.22;;;18.98;55.02
69535;BME280;56754;51.568;5.048;2023-06-05T04:13:18;102138.66;;;18.96;55.30
69535;BME280;56754;51.568;5.048;2023-06-05T04:15:43;102139.03;;;18.94;55.33
69535;BME280;56754;51.568;5.048;2023-06-05T04:18:09;102142.06;;;18.93;54.35
69535;BME280;56754;51.568;5.048;2023-06-05T04:20:34;102137.78;;;18.92;55.67
69535;BME280;56754;51.568;5.048;2023-06-05T04:22:59;102138.56;;;18.92;54.81
69535;BME280;56754;51.568;5.048;2023-06-05T04:25:27;102140.47;;;18.92;55.70
69535;BME280;56754;51.568;5.048;2023-06-05T04:27:53;102149.75;;;18.91;55.57
69535;BME280;56754;51.568;5.048;2023-06-05T04:30:18;102154.69;;;18.89;55.57
69535;BME280;56754;51.568;5.048;2023-06-05T04:32:43;102151.19;;;18.88;55.98
69535;BME280;56754;51.568;5.048;2023-06-05T04:35:09;102151.50;;;18.86;55.47
69535;BME280;56754;51.568;5.048;2023-06-05T04:37:36;102155.34;;;18.85;55.43
69535;BME280;56754;51.568;5.048;2023-06-05T04:40:02;102151.88;;;18.85;55.50
69535;BME280;56754;51.568;5.048;2023-06-05T04:42:27;102160.78;;;18.85;55.19
69535;BME280;56754;51.568;5.048;2023-06-05T04:45:00;102157.28;;;18.85;55.79
69535;BME280;56754;51.568;5.048;2023-06-05T04:47:27;102156.50;;;18.84;55.83
69535;BME280;56754;51.568;5.048;2023-06-05T04:49:52;102167.31;;;18.84;55.75
69535;BME280;56754;51.568;5.048;2023-06-05T04:52:18;102160.00;;;18.85;55.51
69535;BME280;56754;51.568;5.048;2023-06-05T04:54:43;102163.47;;;18.85;55.74
69535;BME280;56754;51.568;5.048;2023-06-05T04:57:09;102161.56;;;18.86;55.68
69535;BME280;56754;51.568;5.048;2023-06-05T04:59:35;102160.78;;;18.85;55.85
69535;BME280;56754;51.568;5.048;2023-06-05T05:02:00;102155.69;;;18.84;55.11
69535;BME280;56754;51.568;5.048;2023-06-05T05:04:26;102156.50;;;18.84;55.99
69535;BME280;56754;51.568;5.048;2023-06-05T05:06:51;102156.50;;;18.84;55.70
69535;BME280;56754;51.568;5.048;2023-06-05T05:09:16;102151.06;;;18.84;55.56
69535;BME280;56754;51.568;5.048;2023-06-05T05:11:42;102161.91;;;18.84;55.64
69535;BME280;56754;51.568;5.048;2023-06-05T05:14:07;102155.69;;;18.84;55.07
69535;BME280;56754;51.568;5.048;2023-06-05T05:16:32;102153.31;;;18.82;54.93
69535;BME280;56754;51.568;5.048;2023-06-05T05:18:58;102148.69;;;18.83;55.29
69535;BME280;56754;51.568;5.048;2023-06-05T05:21:23;102158.72;;;18.82;55.07
69535;BME280;56754;51.568;5.048;2023-06-05T05:23:48;102159.53;;;18.83;55.96
69535;BME280;56754;51.568;5.048;2023-06-05T05:26:13;102153.31;;;18.82;55.21
69535;BME280;56754;51.568;5.048;2023-06-05T05:28:39;102159.19;;;18.84;55.40
69535;BME280;56754;51.568;5.048;2023-06-05T05:31:04;102152.66;;;18.85;55.70
69535;BME280;56754;51.568;5.048;2023-06-05T05:33:29;102158.53;;;18.88;55.15
69535;BME280;56754;51.568;5.048;2023-06-05T05:35:55;102155.47;;;18.89;55.68
69535;BME280;56754;51.568;5.048;2023-06-05T05:38:20;102155.94;;;18.91;55.43
69535;BME280;56754;51.568;5.048;2023-06-05T05:40:46;102158.31;;;18.93;55.59
69535;BME280;56754;51.568;5.048;2023-06-05T05:43:11;102156.84;;;18.95;55.30
69535;BME280;56754;51.568;5.048;2023-06-05T05:45:36;102160.03;;;18.97;56.11
69535;BME280;56754;51.568;5.048;2023-06-05T05:48:01;102155.50;;;19.01;55.87
69535;BME280;56754;51.568;5.048;2023-06-05T05:50:27;102154.06;;;19.04;55.70
69535;BME280;56754;51.568;5.048;2023-06-05T05:52:52;102159.94;;;19.06;54.78
69535;BME280;56754;51.568;5.048;2023-06-05T05:55:17;102159.59;;;19.07;55.28
69535;BME280;56754;51.568;5.048;2023-06-05T05:57:43;102164.69;;;19.09;54.34
69535;BME280;56754;51.568;5.048;2023-06-05T06:00:08;102169.44;;;19.12;55.03
69535;BME280;56754;51.568;5.048;2023-06-05T06:02:34;102173.72;;;19.13;55.12
69535;BME280;56754;51.568;5.048;2023-06-05T06:05:00;102170.69;;;19.15;55.66
69535;BME280;56754;51.568;5.048;2023-06-05T06:07:25;102172.75;;;19.18;54.79
69535;BME280;56754;51.568;5.048;2023-06-05T06:09:50;102178.63;;;19.20;54.89
69535;BME280;56754;51.568;5.048;2023-06-05T06:12:15;102177.94;;;19.23;54.98
69535;BME280;56754;51.568;5.048;2023-06-05T06:14:41;102177.59;;;19.24;53.94
69535;BME280;56754;51.568;5.048;2023-06-05T06:17:06;102178.38;;;19.25;54.55
69535;BME280;56754;51.568;5.048;2023-06-05T06:19:31;102174.22;;;19.27;54.71
69535;BME280;56754;51.568;5.048;2023-06-05T06:21:57;102176.16;;;19.27;53.91
69535;BME280;56754;51.568;5.048;2023-06-05T06:24:22;102176.25;;;19.30;54.27
69535;BME280;56754;51.568;5.048;2023-06-05T06:26:48;102182.16;;;19.32;54.54
69535;BME280;56754;51.568;5.048;2023-06-05T06:29:17;102185.31;;;19.35;54.70
69535;BME280;56754;51.568;5.048;2023-06-05T06:31:43;102185.75;;;19.37;54.20
69535;BME280;56754;51.568;5.048;2023-06-05T06:34:08;102181.94;;;19.38;53.74
69535;BME280;56754;51.568;5.048;2023-06-05T06:36:33;102176.16;;;19.39;54.16
69535;BME280;56754;51.568;5.048;2023-06-05T06:38:59;102173.13;;;19.41;53.92
69535;BME280;56754;51.568;5.048;2023-06-05T06:41:24;102187.94;;;19.43;54.06
69535;BME280;56754;51.568;5.048;2023-06-05T06:43:49;102181.03;;;19.46;53.80
69535;BME280;56754;51.568;5.048;2023-06-05T06:46:15;102182.28;;;19.48;53.47
69535;BME280;56754;51.568;5.048;2023-06-05T06:48:40;102190.09;;;19.50;53.92
69535;BME280;56754;51.568;5.048;2023-06-05T06:51:05;102186.69;;;19.53;53.74
69535;BME280;56754;51.568;5.048;2023-06-05T06:53:31;102183.63;;;19.54;53.21
69535;BME280;56754;51.568;5.048;2023-06-05T06:55:56;102186.03;;;19.56;53.51
69535;BME280;56754;51.568;5.048;2023-06-05T06:58:21;102182.19;;;19.57;53.04
69535;BME280;56754;51.568;5.048;2023-06-05T07:00:46;102197.44;;;19.62;53.91
69535;BME280;56754;51.568;5.048;2023-06-05T07:03:12;102195.66;;;19.66;53.74
69535;BME280;56754;51.568;5.048;2023-06-05T07:05:37;102203.81;;;19.66;53.00
69535;BME280;56754;51.568;5.048;2023-06-05T07:08:02;102205.72;;;19.65;52.50
69535;BME280;56754;51.568;5.048;2023-06-05T07:10:28;102202.22;;;19.65;52.65
69535;BME280;56754;51.568;5.048;2023-06-05T07:12:54;102204.69;;;19.70;52.69
69535;BME280;56754;51.568;5.048;2023-06-05T07:15:20;102204.38;;;19.71;52.42
69535;BME280;56754;51.568;5.048;2023-06-05T07:17:45;102195.00;;;19.69;51.74
69535;BME280;56754;51.568;5.048;2023-06-05T07:20:10;102200.09;;;19.70;51.01
69535;BME280;56754;51.568;5.048;2023-06-05T07:22:36;102192.75;;;19.71;50.81
69535;BME280;56754;51.568;5.048;2023-06-05T07:25:01;102199.75;;;19.72;50.98
69535;BME280;56754;51.568;5.048;2023-06-05T07:27:26;102206.09;;;19.76;50.77
69535;BME280;56754;51.568;5.048;2023-06-05T07:29:51;102200.31;;;19.77;50.44
69535;BME280;56754;51.568;5.048;2023-06-05T07:32:17;102198.84;;;19.80;50.54
69535;BME280;56754;51.568;5.048;2023-06-05T07:34:43;102200.09;;;19.83;50.60
69535;BME280;56754;51.568;5.048;2023-06-05T07:37:08;102195.13;;;19.85;50.44
69535;BME280;56754;51.568;5.048;2023-06-05T07:39:34;102202.59;;;19.88;50.80
69535;BME280;56754;51.568;5.048;2023-06-05T07:41:59;102203.03;;;19.90;50.37
69535;BME280;56754;51.568;5.048;2023-06-05T07:44:24;102208.91;;;19.92;50.44
69535;BME280;56754;51.568;5.048;2023-06-05T07:46:51;102207.44;;;19.94;50.78
69535;BME280;56754;51.568;5.048;2023-06-05T07:49:17;102202.44;;;19.96;50.73
69535;BME280;56754;51.568;5.048;2023-06-05T07:51:43;102210.72;;;20.00;50.79
69535;BME280;56754;51.568;5.048;2023-06-05T07:54:10;102208.44;;;20.02;50.48
69535;BME280;56754;51.568;5.048;2023-06-05T07:56:36;102209.69;;;20.05;50.50
69535;BME280;56754;51.568;5.048;2023-06-05T07:59:03;102200.06;;;20.07;50.55
69535;BME280;56754;51.568;5.048;2023-06-05T08:01:32;102200.53;;;20.09;50.52
69535;BME280;56754;51.568;5.048;2023-06-05T08:04:00;102207.53;;;20.10;50.60
69535;BME280;56754;51.568;5.048;2023-06-05T08:06:25;102208.00;;;20.12;50.33
69535;BME280;56754;51.568;5.048;2023-06-05T08:08:51;102206.53;;;20.15;50.67
69535;BME280;56754;51.568;5.048;2023-06-05T08:11:17;102200.75;;;20.16;50.39
69535;BME280;56754;51.568;5.048;2023-06-05T08:13:42;102209.34;;;20.18;50.09
69535;BME280;56754;51.568;5.048;2023-06-05T08:16:08;102202.00;;;20.19;50.43
69535;BME280;56754;51.568;5.048;2023-06-05T08:18:33;102199.38;;;20.22;50.48
69535;BME280;56754;51.568;5.048;2023-06-05T08:20:59;102192.84;;;20.23;50.17
69535;BME280;56754;51.568;5.048;2023-06-05T08:23:24;102204.13;;;20.26;50.24
69535;BME280;56754;51.568;5.048;2023-06-05T08:25:49;102188.75;;;20.30;50.55
69535;BME280;56754;51.568;5.048;2023-06-05T08:28:15;102181.25;;;20.39;50.42
69535;BME280;56754;51.568;5.048;2023-06-05T08:30:41;102184.53;;;20.44;50.18
69535;BME280;56754;51.568;5.048;2023-06-05T08:33:06;102180.44;;;20.51;50.32
69535;BME280;56754;51.568;5.048;2023-06-05T08:35:32;102181.03;;;20.56;50.29
69535;BME280;56754;51.568;5.048;2023-06-05T08:37:57;102181.56;;;20.62;50.18
69535;BME280;56754;51.568;5.048;2023-06-05T08:40:26;102187.97;;;20.70;50.04
69535;BME280;56754;51.568;5.048;2023-06-05T08:42:52;102174.50;;;20.73;50.31
69535;BME280;56754;51.568;5.048;2023-06-05T08:45:18;102181.63;;;20.78;50.08
69535;BME280;56754;51.568;5.048;2023-06-05T08:47:44;102186.34;;;20.81;49.97
69535;BME280;56754;51.568;5.048;2023-06-05T08:50:09;102169.38;;;20.84;49.93
69535;BME280;56754;51.568;5.048;2023-06-05T08:52:38;102169.81;;;20.86;49.99
69535;BME280;56754;51.568;5.048;2023-06-05T08:55:04;102169.13;;;20.89;49.92
69535;BME280;56754;51.568;5.048;2023-06-05T08:57:32;102171.47;;;20.90;49.92
69535;BME280;56754;51.568;5.048;2023-06-05T09:00:02;102169.22;;;20.93;49.81
69535;BME280;56754;51.568;5.048;2023-06-05T09:02:27;102167.72;;;20.95;49.94
69535;BME280;56754;51.568;5.048;2023-06-05T09:04:52;102168.97;;;20.98;49.52
69535;BME280;56754;51.568;5.048;2023-06-05T09:07:18;102163.16;;;20.99;49.78
69535;BME280;56754;51.568;5.048;2023-06-05T09:09:43;102165.19;;;21.02;49.59
69535;BME280;56754;51.568;5.048;2023-06-05T09:12:08;102172.66;;;21.05;49.63
69535;BME280;56754;51.568;5.048;2023-06-05T09:14:34;102166.50;;;21.08;49.96
69535;BME280;56754;51.568;5.048;2023-06-05T09:17:01;102168.53;;;21.11;49.88
69535;BME280;56754;51.568;5.048;2023-06-05T09:19:37;102158.13;;;21.13;49.87
69535;BME280;56754;51.568;5.048;2023-06-05T09:22:02;102158.56;;;21.16;49.78
69535;BME280;56754;51.568;5.048;2023-06-05T09:24:29;102169.06;;;21.17;49.51
69535;BME280;56754;51.568;5.048;2023-06-05T09:27:02;102161.38;;;21.19;49.49
69535;BME280;56754;51.568;5.048;2023-06-05T09:29:32;102158.28;;;21.21;49.56
69535;BME280;56754;51.568;5.048;2023-06-05T09:32:00;102157.16;;;21.22;49.52
69535;BME280;56754;51.568;5.048;2023-06-05T09:34:26;102158.72;;;21.23;49.59
69535;BME280;56754;51.568;5.048;2023-06-05T09:36:52;102154.91;;;21.24;49.41
69535;BME280;56754;51.568;5.048;2023-06-05T09:39:18;102142.88;;;21.25;49.48
69535;BME280;56754;51.568;5.048;2023-06-05T09:41:45;102148.75;;;21.27;49.42
69535;BME280;56754;51.568;5.048;2023-06-05T09:44:11;102151.47;;;21.27;49.33
69535;BME280;56754;51.568;5.048;2023-06-05T09:49:46;102156.22;;;21.30;49.57
69535;BME280;56754;51.568;5.048;2023-06-05T09:52:11;102155.06;;;21.31;49.43
69535;BME280;56754;51.568;5.048;2023-06-05T09:54:39;102152.78;;;21.33;49.80
69535;BME280;56754;51.568;5.048;2023-06-05T09:57:06;102159.78;;;21.34;49.54
69535;BME280;56754;51.568;5.048;2023-06-05T09:59:34;102146.19;;;21.34;49.36
69535;BME280;56754;51.568;5.048;2023-06-05T10:02:05;102153.69;;;21.37;49.38
69535;BME280;56754;51.568;5.048;2023-06-05T10:04:36;102147.91;;;21.39;49.59
69535;BME280;56754;51.568;5.048;2023-06-05T10:07:03;102154.13;;;21.39;49.57
69535;BME280;56754;51.568;5.048;2023-06-05T10:09:30;102147.53;;;21.40;49.36
69535;BME280;56754;51.568;5.048;2023-06-05T10:11:56;102137.44;;;21.41;49.50
69535;BME280;56754;51.568;5.048;2023-06-05T10:14:22;102134.72;;;21.41;49.07
69535;BME280;56754;51.568;5.048;2023-06-05T10:16:51;102128.94;;;21.42;49.46
69535;BME280;56754;51.568;5.048;2023-06-05T10:19:18;102130.53;;;21.43;49.28
69535;BME280;56754;51.568;5.048;2023-06-05T10:21:43;102139.13;;;21.45;49.37
69535;BME280;56754;51.568;5.048;2023-06-05T10:24:12;102137.97;;;21.46;49.30
69535;BME280;56754;51.568;5.048;2023-06-05T10:35:12;102125.09;;;21.43;49.05
69535;BME280;56754;51.568;5.048;2023-06-05T10:38:26;102131.66;;;21.42;49.35
69535;BME280;56754;51.568;5.048;2023-06-05T10:41:00;102128.25;;;21.45;49.56
69535;BME280;56754;51.568;5.048;2023-06-05T10:43:29;102130.97;;;21.45;49.25
69535;BME280;56754;51.568;5.048;2023-06-05T10:45:56;102125.94;;;21.47;49.32
69535;BME280;56754;51.568;5.048;2023-06-05T10:48:21;102126.75;;;21.48;49.20
69535;BME280;56754;51.568;5.048;2023-06-05T10:51:32;102127.53;;;21.48;49.11
69535;BME280;56754;51.568;5.048;2023-06-05T10:53:58;102126.38;;;21.49;48.91
69535;BME280;56754;51.568;5.048;2023-06-05T10:59:17;102117.13;;;21.50;48.90
69535;BME280;56754;51.568;5.048;2023-06-05T11:01:43;102117.13;;;21.50;48.81
69535;BME280;56754;51.568;5.048;2023-06-05T11:04:08;102120.63;;;21.51;49.28
69535;BME280;56754;51.568;5.048;2023-06-05T11:06:34;102119.81;;;21.50;48.76
69535;BME280;56754;51.568;5.048;2023-06-05T11:12:01;102117.13;;;21.50;49.26
69535;BME280;56754;51.568;5.048;2023-06-05T11:14:45;102114.38;;;21.50;49.19
69535;BME280;56754;51.568;5.048;2023-06-05T11:17:46;102109.38;;;21.52;49.11
69535;BME280;56754;51.568;5.048;2023-06-05T11:30:14;102098.94;;;21.54;49.21
69535;BME280;56754;51.568;5.048;2023-06-05T11:32:40;102086.47;;;21.53;49.16
69535;BME280;56754;51.568;5.048;2023-06-05T11:35:06;102096.66;;;21.56;49.11
69535;BME280;56754;51.568;5.048;2023-06-05T11:37:31;102094.34;;;21.58;49.18
69535;BME280;56754;51.568;5.048;2023-06-05T11:39:57;102092.78;;;21.57;48.77
69535;BME280;56754;51.568;5.048;2023-06-05T11:42:22;102083.91;;;21.61;49.15
69535;BME280;56754;51.568;5.048;2023-06-05T11:44:48;102087.41;;;21.61;48.82
69535;BME280;56754;51.568;5.048;2023-06-05T11:47:26;102080.03;;;21.62;48.82
69535;BME280;56754;51.568;5.048;2023-06-05T11:49:52;102092.50;;;21.63;49.36
69535;BME280;56754;51.568;5.048;2023-06-05T11:52:18;102086.72;;;21.64;49.24
69535;BME280;56754;51.568;5.048;2023-06-05T11:54:44;102086.72;;;21.64;49.11
69535;BME280;56754;51.568;5.048;2023-06-05T11:57:09;102084.78;;;21.65;48.61
69535;BME280;56754;51.568;5.048;2023-06-05T11:59:35;102093.81;;;21.69;49.03
69535;BME280;56754;51.568;5.048;2023-06-05T12:02:01;102091.88;;;21.69;48.83
69535;BME280;56754;51.568;5.048;2023-06-05T12:04:26;102083.34;;;21.71;48.68
69535;BME280;56754;51.568;5.048;2023-06-05T12:06:52;102083.00;;;21.72;48.92
69535;BME280;56754;51.568;5.048;2023-06-05T12:09:17;102083.78;;;21.73;48.71
69535;BME280;56754;51.568;5.048;2023-06-05T12:11:43;102082.63;;;21.74;48.86
69535;BME280;56754;51.568;5.048;2023-06-05T12:14:10;102083.09;;;21.76;48.55
69535;BME280;56754;51.568;5.048;2023-06-05T12:16:37;102079.22;;;21.77;48.74
69535;BME280;56754;51.568;5.048;2023-06-05T12:19:17;102078.09;;;21.78;48.49
69535;BME280;56754;51.568;5.048;2023-06-05T12:21:49;102070.34;;;21.80;48.56
69535;BME280;56754;51.568;5.048;2023-06-05T12:24:15;102071.16;;;21.80;49.02
69535;BME280;56754;51.568;5.048;2023-06-05T12:27:00;102075.88;;;21.84;49.89
69535;BME280;56754;51.568;5.048;2023-06-05T12:29:32;102076.66;;;21.84;48.58
69535;BME280;56754;51.568;5.048;2023-06-05T12:32:00;102068.94;;;21.86;48.60
69535;BME280;56754;51.568;5.048;2023-06-05T12:34:46;102065.06;;;21.87;49.05
69535;BME280;56754;51.568;5.048;2023-06-05T12:37:24;102056.53;;;21.89;48.61
69535;BME280;56754;51.568;5.048;2023-06-05T12:39:50;102066.28;;;21.90;48.02
69535;BME280;56754;51.568;5.048;2023-06-05T12:42:15;102062.06;;;21.92;49.59
69535;BME280;56754;51.568;5.048;2023-06-05T12:44:40;102061.28;;;21.92;48.54
69535;BME280;56754;51.568;5.048;2023-06-05T12:47:06;102060.91;;;21.93;49.35
69535;BME280;56754;51.568;5.048;2023-06-05T12:49:31;102053.53;;;21.94;48.93
69535;BME280;56754;51.568;5.048;2023-06-05T12:51:57;102062.91;;;21.96;49.55
69535;BME280;56754;51.568;5.048;2023-06-05T12:54:22;102056.31;;;21.97;50.13
69535;BME280;56754;51.568;5.048;2023-06-05T12:56:47;102050.53;;;21.99;48.73
69535;BME280;56754;51.568;5.048;2023-06-05T12:59:13;102046.66;;;22.00;48.77
69535;BME280;56754;51.568;5.048;2023-06-05T13:01:38;102044.38;;;22.02;49.25
69535;BME280;56754;51.568;5.048;2023-06-05T13:04:06;102038.56;;;22.03;49.68
69535;BME280;56754;51.568;5.048;2023-06-05T13:06:32;102039.00;;;22.06;49.37
69535;BME280;56754;51.568;5.048;2023-06-05T13:08:57;102031.25;;;22.08;49.10
69535;BME280;56754;51.568;5.048;2023-06-05T13:11:22;102032.81;;;22.09;49.18
69535;BME280;56754;51.568;5.048;2023-06-05T13:13:48;102022.72;;;22.09;50.32